sensor_id;sensor_type;location;lat;lon;timestamp;P1;durP1;ratioP1;P2;durP2;ratioP2
56291;SDS011;54008;53.606;9.462;2022-08-03T00:01:27;5.25;;;4.50;;
56291;SDS011;54008;53.606;9.462;2022-08-03T00:03:53;5.32;;;4.82;;
56291;SDS011;54008;53.606;9.462;2022-08-03T00:06:18;5.72;;;4.85;;
56291;SDS011;54008;53.606;9.462;2022-08-03T00:08:43;5.20;;;4.70;;
56291;SDS011;54008;53.606;9.462;2022-08-03T00:11:09;6.82;;;5.22;;
56291;SDS011;54008;53.606;9.462;2022-08-03T00:13:34;7.60;;;4.90;;
56291;SDS011;54008;53.606;9.462;2022-08-03T00:15:59;6.63;;;4.73;;
56291;SDS011;54008;53.606;9.462;2022-08-03T00:18:24;5.57;;;5.00;;
56291;SDS011;54008;53.606;9.462;2022-08-03T00:20:50;5.83;;;4.93;;
56291;SDS011;54008;53.606;9.462;2022-08-03T00:23:15;6.63;;;4.80;;
56291;SDS011;54008;53.606;9.462;2022-08-03T00:25:41;5.05;;;4.25;;
56291;SDS011;54008;53.606;9.462;2022-08-03T00:28:06;5.55;;;4.65;;
56291;SDS011;54008;53.606;9.462;2022-08-03T00:30:32;7.90;;;5.13;;
56291;SDS011;54008;53.606;9.462;2022-08-03T00:32:57;9.02;;;4.85;;
56291;SDS011;54008;53.606;9.462;2022-08-03T00:35:24;6.20;;;4.88;;
56291;SDS011;54008;53.606;9.462;2022-08-03T00:37:50;5.80;;;4.63;;
56291;SDS011;54008;53.606;9.462;2022-08-03T00:40:16;5.35;;;4.85;;
56291;SDS011;54008;53.606;9.462;2022-08-03T00:43:24;7.05;;;4.75;;
56291;SDS011;54008;53.606;9.462;2022-08-03T00:45:32;6.50;;;5.18;;
56291;SDS011;54008;53.606;9.462;2022-08-03T00:47:59;7.22;;;4.75;;
56291;SDS011;54008;53.606;9.462;2022-08-03T00:50:26;6.63;;;4.90;;
56291;SDS011;54008;53.606;9.462;2022-08-03T00:52:55;7.95;;;5.43;;
56291;SDS011;54008;53.606;9.462;2022-08-03T00:55:22;6.55;;;5.10;;
56291;SDS011;54008;53.606;9.462;2022-08-03T00:57:48;6.63;;;4.55;;
56291;SDS011;54008;53.606;9.462;2022-08-03T01:00:15;6.10;;;5.03;;
56291;SDS011;54008;53.606;9.462;2022-08-03T01:02:42;5.65;;;5.00;;
56291;SDS011;54008;53.606;9.462;2022-08-03T01:05:08;5.75;;;5.15;;
56291;SDS011;54008;53.606;9.462;2022-08-03T01:07:56;5.82;;;5.20;;
56291;SDS011;54008;53.606;9.462;2022-08-03T01:16:18;8.15;;;6.60;;
56291;SDS011;54008;53.606;9.462;2022-08-03T01:25:18;7.15;;;6.40;;
56291;SDS011;54008;53.606;9.462;2022-08-03T01:30:20;6.70;;;5.97;;
56291;SDS011;54008;53.606;9.462;2022-08-03T01:32:51;7.38;;;6.55;;
56291;SDS011;54008;53.606;9.462;2022-08-03T01:37:56;8.00;;;7.13;;
56291;SDS011;54008;53.606;9.462;2022-08-03T01:40:25;8.15;;;6.78;;
56291;SDS011;54008;53.606;9.462;2022-08-03T01:42:53;7.50;;;6.32;;
56291;SDS011;54008;53.606;9.462;2022-08-03T01:45:21;7.57;;;6.88;;
56291;SDS011;54008;53.606;9.462;2022-08-03T01:47:47;10.05;;;7.35;;
56291;SDS011;54008;53.606;9.462;2022-08-03T01:50:13;7.75;;;6.95;;
56291;SDS011;54008;53.606;9.462;2022-08-03T01:52:41;13.48;;;7.13;;
56291;SDS011;54008;53.606;9.462;2022-08-03T01:55:09;7.72;;;6.90;;
56291;SDS011;54008;53.606;9.462;2022-08-03T01:57:37;9.02;;;7.53;;
56291;SDS011;54008;53.606;9.462;2022-08-03T02:00:04;10.23;;;7.63;;
56291;SDS011;54008;53.606;9.462;2022-08-03T02:02:33;11.07;;;6.95;;
56291;SDS011;54008;53.606;9.462;2022-08-03T02:05:00;8.75;;;7.85;;
56291;SDS011;54008;53.606;9.462;2022-08-03T02:07:28;7.97;;;7.18;;
56291;SDS011;54008;53.606;9.462;2022-08-03T02:09:55;10.35;;;8.07;;
56291;SDS011;54008;53.606;9.462;2022-08-03T02:12:24;8.55;;;7.55;;
56291;SDS011;54008;53.606;9.462;2022-08-03T02:14:50;12.00;;;7.85;;
56291;SDS011;54008;53.606;9.462;2022-08-03T02:17:16;9.20;;;8.35;;
56291;SDS011;54008;53.606;9.462;2022-08-03T02:19:43;9.63;;;8.50;;
56291;SDS011;54008;53.606;9.462;2022-08-03T02:22:09;8.88;;;7.85;;
56291;SDS011;54008;53.606;9.462;2022-08-03T02:24:36;10.20;;;9.20;;
56291;SDS011;54008;53.606;9.462;2022-08-03T02:27:04;10.65;;;8.13;;
56291;SDS011;54008;53.606;9.462;2022-08-03T02:29:35;10.23;;;9.15;;
56291;SDS011;54008;53.606;9.462;2022-08-03T02:32:03;9.75;;;8.75;;
56291;SDS011;54008;53.606;9.462;2022-08-03T02:34:29;9.73;;;8.82;;
56291;SDS011;54008;53.606;9.462;2022-08-03T02:36:58;9.93;;;8.80;;
56291;SDS011;54008;53.606;9.462;2022-08-03T02:39:24;10.73;;;9.50;;
56291;SDS011;54008;53.606;9.462;2022-08-03T02:41:55;10.53;;;9.30;;
56291;SDS011;54008;53.606;9.462;2022-08-03T02:44:26;10.63;;;9.52;;
56291;SDS011;54008;53.606;9.462;2022-08-03T02:46:53;12.25;;;10.00;;
56291;SDS011;54008;53.606;9.462;2022-08-03T02:49:21;11.38;;;9.60;;
56291;SDS011;54008;53.606;9.462;2022-08-03T02:51:48;11.25;;;9.82;;
56291;SDS011;54008;53.606;9.462;2022-08-03T02:54:16;10.88;;;9.73;;
56291;SDS011;54008;53.606;9.462;2022-08-03T02:56:44;12.23;;;9.75;;
56291;SDS011;54008;53.606;9.462;2022-08-03T02:59:10;11.82;;;10.63;;
56291;SDS011;54008;53.606;9.462;2022-08-03T03:01:37;11.85;;;10.30;;
56291;SDS011;54008;53.606;9.462;2022-08-03T03:04:03;15.57;;;10.48;;
56291;SDS011;54008;53.606;9.462;2022-08-03T03:06:29;12.93;;;10.65;;
56291;SDS011;54008;53.606;9.462;2022-08-03T03:08:55;11.15;;;10.02;;
56291;SDS011;54008;53.606;9.462;2022-08-03T03:11:21;13.38;;;10.85;;
56291;SDS011;54008;53.606;9.462;2022-08-03T03:13:48;13.18;;;10.52;;
56291;SDS011;54008;53.606;9.462;2022-08-03T03:16:15;12.05;;;10.85;;
56291;SDS011;54008;53.606;9.462;2022-08-03T03:18:43;12.38;;;11.18;;
56291;SDS011;54008;53.606;9.462;2022-08-03T03:21:10;12.80;;;11.48;;
56291;SDS011;54008;53.606;9.462;2022-08-03T03:23:37;12.60;;;11.30;;
56291;SDS011;54008;53.606;9.462;2022-08-03T03:26:04;13.23;;;11.75;;
56291;SDS011;54008;53.606;9.462;2022-08-03T03:28:30;12.23;;;11.10;;
56291;SDS011;54008;53.606;9.462;2022-08-03T03:30:56;13.20;;;11.00;;
56291;SDS011;54008;53.606;9.462;2022-08-03T03:33:22;12.52;;;11.35;;
56291;SDS011;54008;53.606;9.462;2022-08-03T03:35:48;12.88;;;11.45;;
56291;SDS011;54008;53.606;9.462;2022-08-03T03:38:14;13.05;;;11.70;;
56291;SDS011;54008;53.606;9.462;2022-08-03T03:40:39;13.75;;;12.38;;
56291;SDS011;54008;53.606;9.462;2022-08-03T03:43:09;13.00;;;11.60;;
56291;SDS011;54008;53.606;9.462;2022-08-03T03:45:36;13.20;;;11.93;;
56291;SDS011;54008;53.606;9.462;2022-08-03T03:48:05;12.65;;;11.52;;
56291;SDS011;54008;53.606;9.462;2022-08-03T03:50:31;15.77;;;12.38;;
56291;SDS011;54008;53.606;9.462;2022-08-03T03:52:57;14.10;;;12.65;;
56291;SDS011;54008;53.606;9.462;2022-08-03T03:55:23;13.82;;;12.43;;
56291;SDS011;54008;53.606;9.462;2022-08-03T03:57:48;13.77;;;12.40;;
56291;SDS011;54008;53.606;9.462;2022-08-03T04:00:14;14.68;;;12.63;;
56291;SDS011;54008;53.606;9.462;2022-08-03T04:02:41;13.32;;;12.02;;
56291;SDS011;54008;53.606;9.462;2022-08-03T04:05:07;14.40;;;12.90;;
56291;SDS011;54008;53.606;9.462;2022-08-03T04:10:46;14.32;;;12.85;;
56291;SDS011;54008;53.606;9.462;2022-08-03T04:15:55;14.88;;;12.90;;
56291;SDS011;54008;53.606;9.462;2022-08-03T04:18:23;13.52;;;12.23;;
56291;SDS011;54008;53.606;9.462;2022-08-03T04:20:51;13.70;;;12.25;;
56291;SDS011;54008;53.606;9.462;2022-08-03T04:23:19;14.98;;;12.20;;
56291;SDS011;54008;53.606;9.462;2022-08-03T04:25:48;15.87;;;12.77;;
56291;SDS011;54008;53.606;9.462;2022-08-03T04:28:16;14.48;;;12.02;;
56291;SDS011;54008;53.606;9.462;2022-08-03T04:30:42;13.18;;;11.88;;
56291;SDS011;54008;53.606;9.462;2022-08-03T04:33:12;14.23;;;12.73;;
56291;SDS011;54008;53.606;9.462;2022-08-03T04:35:40;13.15;;;11.85;;
56291;SDS011;54008;53.606;9.462;2022-08-03T04:38:07;13.30;;;12.00;;
56291;SDS011;54008;53.606;9.462;2022-08-03T04:40:35;13.43;;;11.70;;
56291;SDS011;54008;53.606;9.462;2022-08-03T04:43:03;16.00;;;13.05;;
56291;SDS011;54008;53.606;9.462;2022-08-03T04:45:30;13.55;;;12.10;;
56291;SDS011;54008;53.606;9.462;2022-08-03T04:47:56;14.68;;;13.23;;
56291;SDS011;54008;53.606;9.462;2022-08-03T04:50:22;13.98;;;11.88;;
56291;SDS011;54008;53.606;9.462;2022-08-03T04:52:48;12.23;;;11.07;;
56291;SDS011;54008;53.606;9.462;2022-08-03T04:55:30;17.05;;;13.15;;
56291;SDS011;54008;53.606;9.462;2022-08-03T04:57:56;13.18;;;11.80;;
56291;SDS011;54008;53.606;9.462;2022-08-03T05:00:23;12.43;;;10.80;;
56291;SDS011;54008;53.606;9.462;2022-08-03T05:02:48;13.45;;;12.15;;
56291;SDS011;54008;53.606;9.462;2022-08-03T05:05:14;13.37;;;11.53;;
56291;SDS011;54008;53.606;9.462;2022-08-03T05:07:40;18.63;;;12.13;;
56291;SDS011;54008;53.606;9.462;2022-08-03T05:10:06;13.75;;;11.73;;
56291;SDS011;54008;53.606;9.462;2022-08-03T05:12:33;12.68;;;11.38;;
56291;SDS011;54008;53.606;9.462;2022-08-03T05:14:59;13.50;;;12.15;;
56291;SDS011;54008;53.606;9.462;2022-08-03T05:17:25;12.77;;;11.60;;
56291;SDS011;54008;53.606;9.462;2022-08-03T05:19:50;13.20;;;10.77;;
56291;SDS011;54008;53.606;9.462;2022-08-03T05:22:15;13.53;;;10.93;;
56291;SDS011;54008;53.606;9.462;2022-08-03T05:24:41;11.70;;;10.50;;
56291;SDS011;54008;53.606;9.462;2022-08-03T05:27:06;11.17;;;9.97;;
56291;SDS011;54008;53.606;9.462;2022-08-03T05:29:31;13.25;;;10.68;;
56291;SDS011;54008;53.606;9.462;2022-08-03T05:31:56;11.83;;;9.67;;
56291;SDS011;54008;53.606;9.462;2022-08-03T05:34:22;9.90;;;9.00;;
56291;SDS011;54008;53.606;9.462;2022-08-03T05:36:47;10.80;;;9.10;;
56291;SDS011;54008;53.606;9.462;2022-08-03T05:39:12;10.43;;;9.37;;
56291;SDS011;54008;53.606;9.462;2022-08-03T05:41:38;11.43;;;9.50;;
56291;SDS011;54008;53.606;9.462;2022-08-03T05:44:03;13.10;;;8.80;;
56291;SDS011;54008;53.606;9.462;2022-08-03T05:46:28;10.15;;;9.15;;
56291;SDS011;54008;53.606;9.462;2022-08-03T05:48:54;10.27;;;8.55;;
56291;SDS011;54008;53.606;9.462;2022-08-03T05:51:19;9.33;;;8.43;;
56291;SDS011;54008;53.606;9.462;2022-08-03T05:53:44;8.80;;;7.90;;
56291;SDS011;54008;53.606;9.462;2022-08-03T05:56:10;8.48;;;7.68;;
56291;SDS011;54008;53.606;9.462;2022-08-03T05:58:36;10.05;;;7.30;;
56291;SDS011;54008;53.606;9.462;2022-08-03T06:01:01;10.30;;;8.25;;
56291;SDS011;54008;53.606;9.462;2022-08-03T06:03:27;8.63;;;7.73;;
56291;SDS011;54008;53.606;9.462;2022-08-03T06:05:52;8.50;;;7.10;;
56291;SDS011;54008;53.606;9.462;2022-08-03T06:08:20;8.48;;;7.55;;
56291;SDS011;54008;53.606;9.462;2022-08-03T06:10:46;7.75;;;7.00;;
56291;SDS011;54008;53.606;9.462;2022-08-03T06:13:11;7.77;;;6.70;;
56291;SDS011;54008;53.606;9.462;2022-08-03T06:15:36;7.82;;;7.13;;
56291;SDS011;54008;53.606;9.462;2022-08-03T06:18:01;7.87;;;6.87;;
56291;SDS011;54008;53.606;9.462;2022-08-03T06:20:27;9.00;;;6.70;;
56291;SDS011;54008;53.606;9.462;2022-08-03T06:22:52;7.80;;;6.32;;
56291;SDS011;54008;53.606;9.462;2022-08-03T06:25:18;8.63;;;7.30;;
56291;SDS011;54008;53.606;9.462;2022-08-03T06:27:44;13.60;;;6.80;;
56291;SDS011;54008;53.606;9.462;2022-08-03T06:30:09;8.17;;;6.63;;
56291;SDS011;54008;53.606;9.462;2022-08-03T06:32:36;7.95;;;7.25;;
56291;SDS011;54008;53.606;9.462;2022-08-03T06:35:03;7.22;;;6.60;;
56291;SDS011;54008;53.606;9.462;2022-08-03T06:37:30;8.18;;;6.82;;
56291;SDS011;54008;53.606;9.462;2022-08-03T06:39:55;7.95;;;6.50;;
56291;SDS011;54008;53.606;9.462;2022-08-03T06:42:20;6.83;;;6.13;;
56291;SDS011;54008;53.606;9.462;2022-08-03T06:44:45;6.22;;;5.63;;
56291;SDS011;54008;53.606;9.462;2022-08-03T06:47:11;6.30;;;5.67;;
56291;SDS011;54008;53.606;9.462;2022-08-03T06:49:36;7.40;;;6.53;;
56291;SDS011;54008;53.606;9.462;2022-08-03T06:52:02;6.40;;;5.68;;
56291;SDS011;54008;53.606;9.462;2022-08-03T06:54:27;8.15;;;5.55;;
56291;SDS011;54008;53.606;9.462;2022-08-03T06:56:52;8.57;;;5.77;;
56291;SDS011;54008;53.606;9.462;2022-08-03T06:59:18;9.27;;;5.57;;
56291;SDS011;54008;53.606;9.462;2022-08-03T07:01:43;6.68;;;4.80;;
56291;SDS011;54008;53.606;9.462;2022-08-03T07:04:08;8.35;;;5.63;;
56291;SDS011;54008;53.606;9.462;2022-08-03T07:06:34;6.22;;;5.30;;
56291;SDS011;54008;53.606;9.462;2022-08-03T07:09:01;7.78;;;5.63;;
56291;SDS011;54008;53.606;9.462;2022-08-03T07:11:26;8.55;;;4.70;;
56291;SDS011;54008;53.606;9.462;2022-08-03T07:13:52;7.20;;;5.25;;
56291;SDS011;54008;53.606;9.462;2022-08-03T07:16:17;6.10;;;4.65;;
56291;SDS011;54008;53.606;9.462;2022-08-03T07:18:43;5.27;;;4.03;;
56291;SDS011;54008;53.606;9.462;2022-08-03T07:21:08;6.03;;;4.50;;
56291;SDS011;54008;53.606;9.462;2022-08-03T07:23:34;8.35;;;4.55;;
56291;SDS011;54008;53.606;9.462;2022-08-03T07:26:00;6.72;;;4.40;;
56291;SDS011;54008;53.606;9.462;2022-08-03T07:28:25;6.73;;;4.30;;
56291;SDS011;54008;53.606;9.462;2022-08-03T07:30:50;6.60;;;4.20;;
56291;SDS011;54008;53.606;9.462;2022-08-03T07:33:16;6.73;;;4.27;;
56291;SDS011;54008;53.606;9.462;2022-08-03T07:35:41;7.05;;;4.32;;
56291;SDS011;54008;53.606;9.462;2022-08-03T07:38:06;5.83;;;4.53;;
56291;SDS011;54008;53.606;9.462;2022-08-03T07:40:32;6.87;;;4.00;;
56291;SDS011;54008;53.606;9.462;2022-08-03T07:42:57;6.88;;;3.60;;
56291;SDS011;54008;53.606;9.462;2022-08-03T07:45:23;5.45;;;3.40;;
56291;SDS011;54008;53.606;9.462;2022-08-03T07:47:50;6.22;;;3.95;;
56291;SDS011;54008;53.606;9.462;2022-08-03T07:50:15;9.03;;;4.13;;
56291;SDS011;54008;53.606;9.462;2022-08-03T07:52:40;9.90;;;3.80;;
56291;SDS011;54008;53.606;9.462;2022-08-03T07:55:11;8.10;;;3.60;;
56291;SDS011;54008;53.606;9.462;2022-08-03T07:57:37;6.45;;;3.03;;
56291;SDS011;54008;53.606;9.462;2022-08-03T08:00:03;5.60;;;3.07;;
56291;SDS011;54008;53.606;9.462;2022-08-03T08:02:30;7.38;;;3.35;;
56291;SDS011;54008;53.606;9.462;2022-08-03T08:04:56;7.27;;;2.60;;
56291;SDS011;54008;53.606;9.462;2022-08-03T08:07:21;4.60;;;2.70;;
56291;SDS011;54008;53.606;9.462;2022-08-03T08:09:46;5.82;;;2.75;;
56291;SDS011;54008;53.606;9.462;2022-08-03T08:12:12;4.97;;;2.60;;
56291;SDS011;54008;53.606;9.462;2022-08-03T08:14:40;9.55;;;2.60;;
56291;SDS011;54008;53.606;9.462;2022-08-03T08:17:06;5.32;;;2.72;;
56291;SDS011;54008;53.606;9.462;2022-08-03T08:19:34;6.57;;;2.40;;
56291;SDS011;54008;53.606;9.462;2022-08-03T08:21:59;6.27;;;2.43;;
56291;SDS011;54008;53.606;9.462;2022-08-03T08:24:24;7.07;;;2.30;;
56291;SDS011;54008;53.606;9.462;2022-08-03T08:26:49;2.80;;;2.30;;
56291;SDS011;54008;53.606;9.462;2022-08-03T08:29:15;6.47;;;2.33;;
56291;SDS011;54008;53.606;9.462;2022-08-03T08:31:40;4.70;;;2.37;;
56291;SDS011;54008;53.606;9.462;2022-08-03T08:34:05;7.50;;;2.25;;
56291;SDS011;54008;53.606;9.462;2022-08-03T08:36:34;6.85;;;2.53;;
56291;SDS011;54008;53.606;9.462;2022-08-03T08:39:00;9.43;;;2.50;;
56291;SDS011;54008;53.606;9.462;2022-08-03T08:41:26;6.35;;;2.20;;
56291;SDS011;54008;53.606;9.462;2022-08-03T08:43:51;6.38;;;2.58;;
56291;SDS011;54008;53.606;9.462;2022-08-03T08:46:18;8.10;;;2.00;;
56291;SDS011;54008;53.606;9.462;2022-08-03T08:48:44;5.65;;;2.28;;
56291;SDS011;54008;53.606;9.462;2022-08-03T08:51:11;9.45;;;2.70;;
56291;SDS011;54008;53.606;9.462;2022-08-03T08:53:37;6.90;;;2.55;;
56291;SDS011;54008;53.606;9.462;2022-08-03T08:56:07;7.05;;;2.42;;
56291;SDS011;54008;53.606;9.462;2022-08-03T08:58:37;6.47;;;2.58;;
56291;SDS011;54008;53.606;9.462;2022-08-03T09:01:08;7.28;;;2.38;;
56291;SDS011;54008;53.606;9.462;2022-08-03T09:03:34;5.50;;;2.50;;
56291;SDS011;54008;53.606;9.462;2022-08-03T09:05:59;6.75;;;2.30;;
56291;SDS011;54008;53.606;9.462;2022-08-03T09:08:27;5.13;;;2.08;;
56291;SDS011;54008;53.606;9.462;2022-08-03T09:10:53;8.20;;;2.97;;
56291;SDS011;54008;53.606;9.462;2022-08-03T09:13:19;7.67;;;2.30;;
56291;SDS011;54008;53.606;9.462;2022-08-03T09:15:44;7.53;;;2.53;;
56291;SDS011;54008;53.606;9.462;2022-08-03T09:18:10;5.40;;;2.67;;
56291;SDS011;54008;53.606;9.462;2022-08-03T09:20:36;7.32;;;2.10;;
56291;SDS011;54008;53.606;9.462;2022-08-03T09:23:03;4.22;;;1.85;;
56291;SDS011;54008;53.606;9.462;2022-08-03T09:25:36;6.88;;;2.30;;
56291;SDS011;54008;53.606;9.462;2022-08-03T09:28:03;8.88;;;2.97;;
56291;SDS011;54008;53.606;9.462;2022-08-03T09:30:31;5.90;;;2.20;;
56291;SDS011;54008;53.606;9.462;2022-08-03T09:33:00;7.35;;;2.40;;
56291;SDS011;54008;53.606;9.462;2022-08-03T09:35:29;5.18;;;2.33;;
56291;SDS011;54008;53.606;9.462;2022-08-03T09:38:11;9.00;;;2.75;;
56291;SDS011;54008;53.606;9.462;2022-08-03T09:40:38;8.25;;;2.80;;
56291;SDS011;54008;53.606;9.462;2022-08-03T09:43:04;6.10;;;2.55;;
56291;SDS011;54008;53.606;9.462;2022-08-03T09:45:31;10.00;;;2.55;;
56291;SDS011;54008;53.606;9.462;2022-08-03T09:47:57;6.75;;;2.33;;
56291;SDS011;54008;53.606;9.462;2022-08-03T09:50:49;7.22;;;2.50;;
56291;SDS011;54008;53.606;9.462;2022-08-03T09:53:16;5.90;;;2.80;;
56291;SDS011;54008;53.606;9.462;2022-08-03T09:55:52;6.70;;;2.10;;
56291;SDS011;54008;53.606;9.462;2022-08-03T09:58:22;7.65;;;2.85;;
56291;SDS011;54008;53.606;9.462;2022-08-03T10:00:53;5.15;;;2.40;;
56291;SDS011;54008;53.606;9.462;2022-08-03T10:03:23;6.75;;;2.47;;
56291;SDS011;54008;53.606;9.462;2022-08-03T10:05:50;9.63;;;2.22;;
56291;SDS011;54008;53.606;9.462;2022-08-03T10:08:16;5.03;;;2.20;;
56291;SDS011;54008;53.606;9.462;2022-08-03T10:10:44;6.43;;;2.40;;
56291;SDS011;54008;53.606;9.462;2022-08-03T10:13:12;7.18;;;2.30;;
56291;SDS011;54008;53.606;9.462;2022-08-03T10:15:38;6.20;;;2.20;;
56291;SDS011;54008;53.606;9.462;2022-08-03T10:18:04;9.73;;;2.47;;
56291;SDS011;54008;53.606;9.462;2022-08-03T10:20:30;7.03;;;2.38;;
56291;SDS011;54008;53.606;9.462;2022-08-03T10:23:00;7.60;;;2.22;;
56291;SDS011;54008;53.606;9.462;2022-08-03T10:25:26;7.95;;;2.00;;
56291;SDS011;54008;53.606;9.462;2022-08-03T10:27:54;5.82;;;2.33;;
56291;SDS011;54008;53.606;9.462;2022-08-03T10:30:22;4.30;;;2.05;;
56291;SDS011;54008;53.606;9.462;2022-08-03T10:32:51;7.70;;;2.13;;
56291;SDS011;54008;53.606;9.462;2022-08-03T10:35:21;4.85;;;2.30;;
56291;SDS011;54008;53.606;9.462;2022-08-03T10:37:54;8.50;;;2.40;;
56291;SDS011;54008;53.606;9.462;2022-08-03T10:40:22;7.10;;;2.10;;
56291;SDS011;54008;53.606;9.462;2022-08-03T10:42:51;4.93;;;2.30;;
56291;SDS011;54008;53.606;9.462;2022-08-03T10:45:20;7.50;;;2.10;;
56291;SDS011;54008;53.606;9.462;2022-08-03T10:47:49;8.50;;;2.38;;
56291;SDS011;54008;53.606;9.462;2022-08-03T10:50:17;6.65;;;2.53;;
56291;SDS011;54008;53.606;9.462;2022-08-03T10:55:40;6.65;;;2.50;;
56291;SDS011;54008;53.606;9.462;2022-08-03T11:01:14;8.55;;;1.95;;
56291;SDS011;54008;53.606;9.462;2022-08-03T11:06:17;6.13;;;2.13;;
56291;SDS011;54008;53.606;9.462;2022-08-03T11:08:48;4.72;;;2.22;;
56291;SDS011;54008;53.606;9.462;2022-08-03T11:11:34;7.22;;;2.55;;
56291;SDS011;54008;53.606;9.462;2022-08-03T11:14:02;4.47;;;2.30;;
56291;SDS011;54008;53.606;9.462;2022-08-03T11:16:40;6.45;;;2.70;;
56291;SDS011;54008;53.606;9.462;2022-08-03T11:19:10;9.20;;;2.67;;
56291;SDS011;54008;53.606;9.462;2022-08-03T11:29:55;13.63;;;2.97;;
56291;SDS011;54008;53.606;9.462;2022-08-03T11:35:08;7.43;;;2.25;;
56291;SDS011;54008;53.606;9.462;2022-08-03T11:37:35;5.72;;;2.22;;
56291;SDS011;54008;53.606;9.462;2022-08-03T11:40:01;6.15;;;2.50;;
56291;SDS011;54008;53.606;9.462;2022-08-03T11:44:56;6.13;;;2.40;;
56291;SDS011;54008;53.606;9.462;2022-08-03T11:47:23;6.93;;;2.30;;
56291;SDS011;54008;53.606;9.462;2022-08-03T11:49:52;5.82;;;2.13;;
56291;SDS011;54008;53.606;9.462;2022-08-03T11:52:19;6.82;;;2.58;;
56291;SDS011;54008;53.606;9.462;2022-08-03T11:54:46;6.45;;;1.95;;
56291;SDS011;54008;53.606;9.462;2022-08-03T11:57:27;8.48;;;2.58;;
56291;SDS011;54008;53.606;9.462;2022-08-03T11:59:54;12.15;;;2.38;;
56291;SDS011;54008;53.606;9.462;2022-08-03T12:02:19;12.93;;;3.43;;
56291;SDS011;54008;53.606;9.462;2022-08-03T12:04:57;8.37;;;2.30;;
56291;SDS011;54008;53.606;9.462;2022-08-03T12:07:26;5.80;;;2.13;;
56291;SDS011;54008;53.606;9.462;2022-08-03T12:10:09;6.03;;;2.70;;
56291;SDS011;54008;53.606;9.462;2022-08-03T12:12:39;7.78;;;2.83;;
56291;SDS011;54008;53.606;9.462;2022-08-03T12:15:06;6.53;;;2.03;;
56291;SDS011;54008;53.606;9.462;2022-08-03T12:17:33;4.97;;;2.25;;
56291;SDS011;54008;53.606;9.462;2022-08-03T12:19:59;7.00;;;2.10;;
56291;SDS011;54008;53.606;9.462;2022-08-03T12:22:35;6.97;;;2.70;;
56291;SDS011;54008;53.606;9.462;2022-08-03T12:25:05;6.28;;;2.22;;
56291;SDS011;54008;53.606;9.462;2022-08-03T12:27:32;6.00;;;2.00;;
56291;SDS011;54008;53.606;9.462;2022-08-03T12:29:58;6.32;;;2.08;;
56291;SDS011;54008;53.606;9.462;2022-08-03T12:32:26;11.10;;;2.20;;
56291;SDS011;54008;53.606;9.462;2022-08-03T12:34:52;6.43;;;1.88;;
56291;SDS011;54008;53.606;9.462;2022-08-03T12:37:20;9.90;;;2.30;;
56291;SDS011;54008;53.606;9.462;2022-08-03T12:39:50;6.60;;;2.13;;
56291;SDS011;54008;53.606;9.462;2022-08-03T12:44:41;7.07;;;1.87;;
56291;SDS011;54008;53.606;9.462;2022-08-03T12:47:07;5.93;;;2.40;;
56291;SDS011;54008;53.606;9.462;2022-08-03T12:49:46;9.85;;;2.25;;
56291;SDS011;54008;53.606;9.462;2022-08-03T12:52:16;8.32;;;1.95;;
56291;SDS011;54008;53.606;9.462;2022-08-03T12:54:54;7.20;;;2.65;;
56291;SDS011;54008;53.606;9.462;2022-08-03T12:57:20;7.80;;;2.30;;
56291;SDS011;54008;53.606;9.462;2022-08-03T12:59:45;8.40;;;2.30;;
56291;SDS011;54008;53.606;9.462;2022-08-03T13:02:19;6.20;;;1.80;;
56291;SDS011;54008;53.606;9.462;2022-08-03T13:04:49;8.60;;;2.13;;
56291;SDS011;54008;53.606;9.462;2022-08-03T13:07:16;9.05;;;2.35;;
56291;SDS011;54008;53.606;9.462;2022-08-03T13:09:46;11.68;;;2.67;;
56291;SDS011;54008;53.606;9.462;2022-08-03T13:12:12;8.15;;;1.85;;
56291;SDS011;54008;53.606;9.462;2022-08-03T13:14:40;8.23;;;2.00;;
56291;SDS011;54008;53.606;9.462;2022-08-03T13:17:07;9.60;;;2.33;;
56291;SDS011;54008;53.606;9.462;2022-08-03T13:19:33;7.93;;;2.13;;
56291;SDS011;54008;53.606;9.462;2022-08-03T13:22:00;6.65;;;1.90;;
56291;SDS011;54008;53.606;9.462;2022-08-03T13:24:34;7.82;;;2.20;;
56291;SDS011;54008;53.606;9.462;2022-08-03T13:26:59;10.03;;;2.53;;
56291;SDS011;54008;53.606;9.462;2022-08-03T13:29:25;8.45;;;2.22;;
56291;SDS011;54008;53.606;9.462;2022-08-03T13:31:51;5.63;;;2.17;;
56291;SDS011;54008;53.606;9.462;2022-08-03T13:34:16;8.95;;;2.10;;
56291;SDS011;54008;53.606;9.462;2022-08-03T13:36:43;5.53;;;2.00;;
56291;SDS011;54008;53.606;9.462;2022-08-03T13:39:08;5.93;;;2.13;;
56291;SDS011;54008;53.606;9.462;2022-08-03T13:41:33;6.87;;;2.30;;
56291;SDS011;54008;53.606;9.462;2022-08-03T13:43:59;7.87;;;2.13;;
56291;SDS011;54008;53.606;9.462;2022-08-03T13:46:24;4.97;;;2.40;;
56291;SDS011;54008;53.606;9.462;2022-08-03T13:48:50;8.18;;;2.45;;
56291;SDS011;54008;53.606;9.462;2022-08-03T13:51:16;8.47;;;2.33;;
56291;SDS011;54008;53.606;9.462;2022-08-03T13:53:41;7.07;;;2.93;;
56291;SDS011;54008;53.606;9.462;2022-08-03T13:56:06;5.67;;;1.80;;
56291;SDS011;54008;53.606;9.462;2022-08-03T13:58:31;4.60;;;2.47;;
56291;SDS011;54008;53.606;9.462;2022-08-03T14:00:57;7.67;;;2.33;;
56291;SDS011;54008;53.606;9.462;2022-08-03T14:03:22;6.63;;;2.23;;
56291;SDS011;54008;53.606;9.462;2022-08-03T14:05:47;9.40;;;1.80;;
56291;SDS011;54008;53.606;9.462;2022-08-03T14:08:12;4.40;;;1.90;;
56291;SDS011;54008;53.606;9.462;2022-08-03T14:10:39;7.17;;;1.83;;
56291;SDS011;54008;53.606;9.462;2022-08-03T14:13:07;5.70;;;2.38;;
56291;SDS011;54008;53.606;9.462;2022-08-03T14:15:32;5.68;;;2.25;;
56291;SDS011;54008;53.606;9.462;2022-08-03T14:17:58;6.00;;;1.77;;
56291;SDS011;54008;53.606;9.462;2022-08-03T14:20:23;9.13;;;2.07;;
56291;SDS011;54008;53.606;9.462;2022-08-03T14:22:48;4.33;;;1.73;;
56291;SDS011;54008;53.606;9.462;2022-08-03T14:25:14;4.83;;;1.70;;
56291;SDS011;54008;53.606;9.462;2022-08-03T14:27:39;6.23;;;1.70;;
56291;SDS011;54008;53.606;9.462;2022-08-03T14:30:04;5.87;;;1.90;;
56291;SDS011;54008;53.606;9.462;2022-08-03T14:32:30;11.52;;;2.38;;
56291;SDS011;54008;53.606;9.462;2022-08-03T14:34:55;5.13;;;1.93;;
56291;SDS011;54008;53.606;9.462;2022-08-03T14:37:20;4.83;;;1.70;;
56291;SDS011;54008;53.606;9.462;2022-08-03T14:39:46;8.63;;;2.07;;
56291;SDS011;54008;53.606;9.462;2022-08-03T14:42:11;8.52;;;1.83;;
56291;SDS011;54008;53.606;9.462;2022-08-03T14:44:37;6.75;;;1.98;;
56291;SDS011;54008;53.606;9.462;2022-08-03T14:47:02;5.10;;;2.10;;
56291;SDS011;54008;53.606;9.462;2022-08-03T14:49:27;8.10;;;2.10;;
56291;SDS011;54008;53.606;9.462;2022-08-03T14:51:53;3.83;;;1.67;;
56291;SDS011;54008;53.606;9.462;2022-08-03T14:54:18;7.83;;;2.70;;
56291;SDS011;54008;53.606;9.462;2022-08-03T14:56:43;8.17;;;2.33;;
56291;SDS011;54008;53.606;9.462;2022-08-03T14:59:08;8.50;;;2.40;;
56291;SDS011;54008;53.606;9.462;2022-08-03T15:01:33;4.40;;;1.87;;
56291;SDS011;54008;53.606;9.462;2022-08-03T15:03:59;4.60;;;1.83;;
56291;SDS011;54008;53.606;9.462;2022-08-03T15:06:24;6.83;;;1.80;;
56291;SDS011;54008;53.606;9.462;2022-08-03T15:08:49;4.77;;;1.97;;
56291;SDS011;54008;53.606;9.462;2022-08-03T15:11:15;10.67;;;2.40;;
56291;SDS011;54008;53.606;9.462;2022-08-03T15:13:40;7.53;;;1.93;;
56291;SDS011;54008;53.606;9.462;2022-08-03T15:16:05;6.47;;;1.70;;
56291;SDS011;54008;53.606;9.462;2022-08-03T15:18:32;6.65;;;1.80;;
56291;SDS011;54008;53.606;9.462;2022-08-03T15:20:57;6.50;;;2.38;;
56291;SDS011;54008;53.606;9.462;2022-08-03T15:23:23;7.23;;;1.90;;
56291;SDS011;54008;53.606;9.462;2022-08-03T15:25:48;9.50;;;2.53;;
56291;SDS011;54008;53.606;9.462;2022-08-03T15:28:13;6.30;;;1.93;;
56291;SDS011;54008;53.606;9.462;2022-08-03T15:30:39;7.97;;;1.60;;